Time;durP1;ratioP1;P1;durP2;ratioP2;P2;SDS_P1;SDS_P2;PMS_P1;PMS_P2;Temp;Humidity;BMP_temperature;BMP_pressure;BME280_temperature;BME280_humidity;BME280_pressure;Samples;Min_cycle;Max_cycle;Signal;HPM_P1;HPM_P2
2023/07/05 00:01:13;;;;;;;6.18;2.28;;;;;;;;;;5088507;28;20027;-62
2023/07/05 00:03:41;;;;;;;5.38;2.35;;;;;;;;;;5088696;28;20016;-62
2023/07/05 00:06:06;;;;;;;5.65;2.47;;;;;;;;;;5090683;28;20478;-62
2023/07/05 00:08:34;;;;;;;5.63;2.10;;;;;;;;;;5085164;28;20107;-62
2023/07/05 00:11:03;;;;;;;4.95;2.08;;;;;;;;;;5089288;28;20122;-62
2023/07/05 00:13:28;;;;;;;6.20;2.25;;;;;;;;;;5087289;28;20064;-61
2023/07/05 00:15:54;;;;;;;4.80;2.28;;;;;;;;;;5091251;28;20098;-62
2023/07/05 00:18:19;;;;;;;5.93;2.15;;;;;;;;;;5082620;27;20032;-61
2023/07/05 00:20:44;;;;;;;5.97;2.60;;;;;;;;;;5093793;28;20031;-62
2023/07/05 00:23:14;;;;;;;7.00;2.50;;;;;;;;;;5092117;28;20030;-62
2023/07/05 00:25:39;;;;;;;6.25;2.40;;;;;;;;;;5090149;28;20089;-62
2023/07/05 00:28:04;;;;;;;7.50;2.67;;;;;;;;;;5088273;28;21006;-63
2023/07/05 00:30:30;;;;;;;6.15;2.50;;;;;;;;;;5088673;28;20258;-63
2023/07/05 00:32:55;;;;;;;6.13;2.50;;;;;;;;;;5095898;27;21417;-65
2023/07/05 00:35:20;;;;;;;5.40;2.63;;;;;;;;;;5090209;28;20027;-64
2023/07/05 00:37:46;;;;;;;7.23;2.57;;;;;;;;;;5089085;28;20487;-64
2023/07/05 00:40:13;;;;;;;6.10;2.60;;;;;;;;;;5094895;28;20043;-61
2023/07/05 00:42:39;;;;;;;5.30;2.45;;;;;;;;;;5085672;28;20023;-63
2023/07/05 00:45:10;;;;;;;4.82;2.65;;;;;;;;;;5091596;28;20016;-62
2023/07/05 00:47:36;;;;;;;5.35;2.28;;;;;;;;;;5092620;28;20023;-62
2023/07/05 00:50:03;;;;;;;5.85;2.25;;;;;;;;;;5089189;28;20046;-62
2023/07/05 00:52:29;;;;;;;5.35;2.03;;;;;;;;;;5090538;28;20031;-62
2023/07/05 00:54:59;;;;;;;7.15;2.28;;;;;;;;;;5083868;28;20078;-63
2023/07/05 00:57:27;;;;;;;5.50;2.35;;;;;;;;;;5084792;28;20035;-61
2023/07/05 01:00:12;;;;;;;4.90;2.47;;;;;;;;;;5087976;28;20023;-61
2023/07/05 01:02:39;;;;;;;7.35;2.20;;;;;;;;;;5083243;28;20036;-61
2023/07/05 01:05:07;;;;;;;5.25;2.33;;;;;;;;;;5089940;28;20036;-61
2023/07/05 01:07:33;;;;;;;5.25;2.50;;;;;;;;;;5083847;28;20136;-62
2023/07/05 01:10:00;;;;;;;6.57;2.75;;;;;;;;;;5095888;28;20023;-62
2023/07/05 01:12:32;;;;;;;5.38;2.40;;;;;;;;;;5082556;28;20012;-61
2023/07/05 01:15:02;;;;;;;6.93;2.60;;;;;;;;;;5090927;28;20694;-60
2023/07/05 01:17:30;;;;;;;6.03;2.60;;;;;;;;;;5087586;28;20056;-61
2023/07/05 01:20:11;;;;;;;4.75;2.28;;;;;;;;;;5086533;28;20546;-61
2023/07/05 01:22:47;;;;;;;6.28;2.42;;;;;;;;;;5087750;28;20110;-61
2023/07/05 01:25:31;;;;;;;6.00;2.80;;;;;;;;;;5083294;28;20022;-61
2023/07/05 01:28:15;;;;;;;5.63;2.53;;;;;;;;;;5085880;28;20027;-62
2023/07/05 01:30:51;;;;;;;6.18;2.80;;;;;;;;;;5089972;28;20023;-60
2023/07/05 01:33:25;;;;;;;5.80;2.47;;;;;;;;;;5089658;27;20359;-62
2023/07/05 01:35:52;;;;;;;5.13;2.25;;;;;;;;;;5087841;28;20077;-62
2023/07/05 01:38:17;;;;;;;4.97;2.53;;;;;;;;;;5087066;27;20709;-62
2023/07/05 01:40:43;;;;;;;4.50;2.20;;;;;;;;;;5090784;28;20023;-61
2023/07/05 01:43:10;;;;;;;6.63;2.40;;;;;;;;;;5086465;28;20518;-62
2023/07/05 01:45:54;;;;;;;6.13;2.53;;;;;;;;;;5085224;28;20055;-64
2023/07/05 01:48:31;;;;;;;5.80;2.47;;;;;;;;;;5082476;28;20692;-60
2023/07/05 01:51:25;;;;;;;5.20;2.97;;;;;;;;;;5087158;28;20015;-61
2023/07/05 01:53:50;;;;;;;5.65;2.70;;;;;;;;;;5089559;28;20126;-61
2023/07/05 01:56:22;;;;;;;5.73;2.50;;;;;;;;;;5085799;28;20023;-61
2023/07/05 01:58:50;;;;;;;5.97;2.40;;;;;;;;;;5083165;28;20042;-61
2023/07/05 02:01:16;;;;;;;5.70;2.17;;;;;;;;;;5086205;28;20069;-62
2023/07/05 02:03:42;;;;;;;7.10;2.58;;;;;;;;;;5090467;27;20126;-62
2023/07/05 02:06:09;;;;;;;4.60;2.30;;;;;;;;;;5092088;28;20032;-60
2023/07/05 02:08:38;;;;;;;6.65;2.60;;;;;;;;;;5079738;28;20710;-63
2023/07/05 02:11:04;;;;;;;5.20;2.13;;;;;;;;;;5088789;28;20038;-63
2023/07/05 02:13:31;;;;;;;5.10;2.30;;;;;;;;;;5084821;28;20020;-63
2023/07/05 02:15:57;;;;;;;4.72;2.22;;;;;;;;;;5085125;28;20517;-61
2023/07/05 02:18:22;;;;;;;5.83;2.10;;;;;;;;;;5081315;28;20028;-63
2023/07/05 02:20:47;;;;;;;4.67;2.20;;;;;;;;;;5088098;28;20330;-61
2023/07/05 02:23:13;;;;;;;6.75;2.60;;;;;;;;;;5082873;28;20269;-62
2023/07/05 02:25:38;;;;;;;4.82;2.38;;;;;;;;;;5085455;28;20101;-63
2023/07/05 02:28:08;;;;;;;5.83;2.47;;;;;;;;;;5085448;28;20051;-62
2023/07/05 02:30:34;;;;;;;7.18;2.60;;;;;;;;;;5083235;28;20314;-61
2023/07/05 02:33:00;;;;;;;5.55;2.30;;;;;;;;;;5087226;28;20880;-62
2023/07/05 02:35:27;;;;;;;7.40;2.60;;;;;;;;;;5085470;28;20020;-61
2023/07/05 02:37:53;;;;;;;5.03;2.38;;;;;;;;;;5083251;28;20872;-61
2023/07/05 02:40:18;;;;;;;4.87;2.23;;;;;;;;;;5083785;28;20027;-62
2023/07/05 02:42:43;;;;;;;5.07;2.40;;;;;;;;;;5089077;28;20291;-61
2023/07/05 02:45:11;;;;;;;7.00;2.10;;;;;;;;;;5082767;28;20310;-61
2023/07/05 02:47:37;;;;;;;5.30;2.20;;;;;;;;;;5090886;28;20248;-61
2023/07/05 02:50:04;;;;;;;6.95;2.20;;;;;;;;;;5087963;28;20007;-64
2023/07/05 02:52:30;;;;;;;5.85;2.35;;;;;;;;;;5085515;28;20039;-62
2023/07/05 02:54:55;;;;;;;5.25;2.47;;;;;;;;;;5088233;28;20020;-62
2023/07/05 02:57:23;;;;;;;5.83;2.50;;;;;;;;;;5084147;28;20032;-61
2023/07/05 02:59:51;;;;;;;5.85;2.50;;;;;;;;;;5089896;28;20358;-62
2023/07/05 03:02:16;;;;;;;5.00;2.20;;;;;;;;;;5087877;28;20020;-62
2023/07/05 03:04:44;;;;;;;5.53;3.00;;;;;;;;;;5088023;28;20510;-62
2023/07/05 03:07:12;;;;;;;4.95;2.35;;;;;;;;;;5083250;28;20297;-62
2023/07/05 03:09:37;;;;;;;5.55;2.03;;;;;;;;;;5089801;28;20067;-62
2023/07/05 03:12:02;;;;;;;5.47;2.40;;;;;;;;;;5082821;28;20043;-60
2023/07/05 03:14:30;;;;;;;4.80;2.40;;;;;;;;;;5089794;28;20050;-61
2023/07/05 03:16:58;;;;;;;5.28;2.00;;;;;;;;;;5080889;28;20059;-60
2023/07/05 03:19:25;;;;;;;4.72;2.30;;;;;;;;;;5088831;28;20023;-61
2023/07/05 03:21:51;;;;;;;5.10;2.45;;;;;;;;;;5084165;28;20024;-61
2023/07/05 03:24:16;;;;;;;4.73;2.10;;;;;;;;;;5090971;28;20100;-62
2023/07/05 03:26:41;;;;;;;4.57;2.17;;;;;;;;;;5091603;28;20368;-63
2023/07/05 03:29:09;;;;;;;5.17;2.10;;;;;;;;;;5090429;28;20295;-61
2023/07/05 03:31:36;;;;;;;4.65;2.33;;;;;;;;;;5088138;28;20245;-63
2023/07/05 03:34:02;;;;;;;4.65;2.20;;;;;;;;;;5086221;28;20034;-62
2023/07/05 03:36:27;;;;;;;5.30;2.00;;;;;;;;;;5093052;28;20024;-61
2023/07/05 03:38:52;;;;;;;4.57;2.22;;;;;;;;;;5089681;28;20266;-61
2023/07/05 03:41:19;;;;;;;6.32;2.10;;;;;;;;;;5092120;28;20023;-62
2023/07/05 03:43:45;;;;;;;6.28;2.00;;;;;;;;;;5094206;28;20031;-62
2023/07/05 03:46:12;;;;;;;5.55;2.15;;;;;;;;;;5091668;28;20127;-62
2023/07/05 03:48:38;;;;;;;5.50;2.28;;;;;;;;;;5092701;28;20054;-61
2023/07/05 03:51:03;;;;;;;4.88;1.98;;;;;;;;;;5089077;28;20491;-61
2023/07/05 03:53:29;;;;;;;6.22;2.20;;;;;;;;;;5089127;28;20065;-62
2023/07/05 03:55:58;;;;;;;6.63;2.20;;;;;;;;;;5095883;28;21054;-62
2023/07/05 03:58:26;;;;;;;5.00;1.98;;;;;;;;;;5088110;28;20028;-62
2023/07/05 04:00:51;;;;;;;5.80;1.90;;;;;;;;;;5089674;28;20052;-62
2023/07/05 04:03:16;;;;;;;5.10;2.00;;;;;;;;;;5087298;28;20623;-61
2023/07/05 04:05:44;;;;;;;4.87;2.50;;;;;;;;;;5088495;28;20276;-60
2023/07/05 04:08:11;;;;;;;6.45;2.65;;;;;;;;;;5087073;28;20266;-62
2023/07/05 04:10:37;;;;;;;4.70;2.20;;;;;;;;;;5092324;28;20535;-61
2023/07/05 04:13:02;;;;;;;5.07;2.57;;;;;;;;;;5094671;28;20104;-61
2023/07/05 04:15:27;;;;;;;5.80;2.30;;;;;;;;;;5088528;28;20696;-62
2023/07/05 04:17:52;;;;;;;7.27;2.30;;;;;;;;;;5094122;28;20074;-62
2023/07/05 04:20:18;;;;;;;6.13;2.40;;;;;;;;;;5088224;28;20273;-61
2023/07/05 04:22:43;;;;;;;5.87;2.30;;;;;;;;;;5087839;28;20266;-61
2023/07/05 04:25:08;;;;;;;5.60;2.50;;;;;;;;;;5088978;28;20787;-60
2023/07/05 04:27:34;;;;;;;4.68;2.30;;;;;;;;;;5088646;28;20295;-63
2023/07/05 04:30:03;;;;;;;5.20;2.17;;;;;;;;;;5090596;28;20031;-61
2023/07/05 04:32:29;;;;;;;5.55;2.30;;;;;;;;;;5086879;28;20028;-62
2023/07/05 04:34:54;;;;;;;6.18;2.30;;;;;;;;;;5087223;28;20079;-61
2023/07/05 04:37:22;;;;;;;6.82;2.35;;;;;;;;;;5087276;28;20737;-61
2023/07/05 04:39:52;;;;;;;4.88;2.28;;;;;;;;;;5091440;28;20093;-61
2023/07/05 04:42:17;;;;;;;6.63;2.15;;;;;;;;;;5086340;27;20047;-61
2023/07/05 04:44:42;;;;;;;5.43;2.25;;;;;;;;;;5087923;28;20295;-61
2023/07/05 04:47:07;;;;;;;5.87;2.30;;;;;;;;;;5088339;28;20123;-62
2023/07/05 04:49:33;;;;;;;6.33;2.40;;;;;;;;;;5095941;28;20286;-61
2023/07/05 04:51:58;;;;;;;7.23;2.27;;;;;;;;;;5091429;28;21109;-62
2023/07/05 04:54:23;;;;;;;5.03;2.10;;;;;;;;;;5090940;28;20260;-61
2023/07/05 04:56:48;;;;;;;5.30;2.40;;;;;;;;;;5086735;28;20313;-61
2023/07/05 04:59:14;;;;;;;5.80;2.30;;;;;;;;;;5089669;28;20716;-61
2023/07/05 05:01:41;;;;;;;6.00;2.35;;;;;;;;;;5087691;28;20263;-61
2023/07/05 05:04:07;;;;;;;7.65;2.22;;;;;;;;;;5084528;28;20435;-63
2023/07/05 05:06:32;;;;;;;4.80;1.90;;;;;;;;;;5091150;28;20028;-61
2023/07/05 05:09:02;;;;;;;5.50;2.22;;;;;;;;;;5085256;28;20031;-61
2023/07/05 05:11:29;;;;;;;5.82;1.95;;;;;;;;;;5088496;28;20057;-63
2023/07/05 05:13:54;;;;;;;5.38;2.55;;;;;;;;;;5087781;28;20161;-62
2023/07/05 05:16:21;;;;;;;5.10;2.20;;;;;;;;;;5086408;28;20495;-60
2023/07/05 05:18:49;;;;;;;5.07;2.20;;;;;;;;;;5089391;28;20655;-63
2023/07/05 05:21:15;;;;;;;7.22;2.33;;;;;;;;;;5087166;28;20019;-62
2023/07/05 05:23:40;;;;;;;6.35;2.35;;;;;;;;;;5080260;28;20023;-61
2023/07/05 05:26:06;;;;;;;5.50;2.17;;;;;;;;;;5063289;28;20114;-61
2023/07/05 05:28:31;;;;;;;6.43;2.22;;;;;;;;;;5091925;28;20827;-60
2023/07/05 05:31:00;;;;;;;6.07;2.50;;;;;;;;;;5086794;28;20059;-60
2023/07/05 05:33:25;;;;;;;5.18;2.40;;;;;;;;;;5084924;28;20357;-61
2023/07/05 05:35:51;;;;;;;5.30;2.13;;;;;;;;;;5088495;28;20012;-61
2023/07/05 05:38:17;;;;;;;6.15;2.28;;;;;;;;;;5076077;28;20690;-61
2023/07/05 05:40:42;;;;;;;4.47;2.10;;;;;;;;;;5083995;28;20012;-61
2023/07/05 05:43:08;;;;;;;5.18;1.90;;;;;;;;;;5087815;28;20031;-61
2023/07/05 05:45:33;;;;;;;6.15;2.45;;;;;;;;;;5089363;28;20030;-62
2023/07/05 05:48:01;;;;;;;4.90;2.40;;;;;;;;;;5086907;28;20026;-61
2023/07/05 05:50:26;;;;;;;7.47;2.47;;;;;;;;;;5087435;28;20011;-61
2023/07/05 05:52:52;;;;;;;6.38;2.08;;;;;;;;;;5085590;28;20027;-59
2023/07/05 05:55:17;;;;;;;4.20;1.95;;;;;;;;;;5085016;28;20028;-61
2023/07/05 05:57:43;;;;;;;4.45;1.88;;;;;;;;;;5082403;28;20047;-60
2023/07/05 06:00:09;;;;;;;5.23;2.03;;;;;;;;;;5081416;28;20501;-62
2023/07/05 06:02:37;;;;;;;4.80;2.13;;;;;;;;;;5086186;28;20265;-61
2023/07/05 06:05:03;;;;;;;5.20;1.98;;;;;;;;;;5079489;28;20377;-60
2023/07/05 06:07:29;;;;;;;6.80;1.98;;;;;;;;;;5082933;28;20038;-60
2023/07/05 06:09:54;;;;;;;5.05;2.38;;;;;;;;;;5082832;28;20023;-61
2023/07/05 06:12:20;;;;;;;5.07;2.10;;;;;;;;;;5080530;28;20030;-59
2023/07/05 06:14:45;;;;;;;6.57;2.22;;;;;;;;;;5093550;28;20015;-59
2023/07/05 06:17:11;;;;;;;6.57;2.17;;;;;;;;;;5081744;28;20088;-63
2023/07/05 06:19:39;;;;;;;6.22;2.22;;;;;;;;;;5094144;28;20268;-59
2023/07/05 06:22:04;;;;;;;5.10;2.05;;;;;;;;;;5081221;28;20024;-60
2023/07/05 06:24:31;;;;;;;4.28;1.80;;;;;;;;;;5082625;28;20031;-60
2023/07/05 06:26:57;;;;;;;4.63;2.10;;;;;;;;;;5076151;28;20042;-58
2023/07/05 06:29:22;;;;;;;6.40;2.40;;;;;;;;;;5077105;28;20024;-61
2023/07/05 06:31:49;;;;;;;4.60;2.10;;;;;;;;;;5079303;28;20028;-62
2023/07/05 06:34:15;;;;;;;6.85;2.50;;;;;;;;;;5079005;28;21031;-61
2023/07/05 06:36:40;;;;;;;5.10;2.20;;;;;;;;;;5087916;28;20032;-59
2023/07/05 06:39:05;;;;;;;5.90;3.13;;;;;;;;;;5079337;28;20023;-63
2023/07/05 06:41:33;;;;;;;5.37;2.73;;;;;;;;;;5084552;28;20086;-61
2023/07/05 06:44:00;;;;;;;5.10;2.35;;;;;;;;;;5079546;28;20347;-58
2023/07/05 06:46:25;;;;;;;5.03;1.95;;;;;;;;;;5087584;28;20126;-61
2023/07/05 06:48:53;;;;;;;4.90;2.03;;;;;;;;;;5085572;28;20703;-62
2023/07/05 06:51:21;;;;;;;6.88;2.17;;;;;;;;;;5081107;27;20020;-62
2023/07/05 06:53:47;;;;;;;6.32;2.40;;;;;;;;;;5081653;28;20019;-60
2023/07/05 06:56:12;;;;;;;5.87;1.90;;;;;;;;;;5080135;27;20036;-63
2023/07/05 06:58:37;;;;;;;6.07;1.90;;;;;;;;;;5083633;28;20289;-59
2023/07/05 07:01:05;;;;;;;6.27;2.30;;;;;;;;;;5081697;28;20565;-62
2023/07/05 07:03:31;;;;;;;5.15;2.03;;;;;;;;;;5080387;28;20541;-59
2023/07/05 07:05:57;;;;;;;5.28;2.40;;;;;;;;;;5080923;28;20647;-60
2023/07/05 07:08:28;;;;;;;6.82;2.15;;;;;;;;;;5080211;28;20132;-62
2023/07/05 07:10:53;;;;;;;6.63;2.13;;;;;;;;;;5083072;28;20089;-61
2023/07/05 07:13:21;;;;;;;5.03;2.08;;;;;;;;;;5077464;28;20028;-61
2023/07/05 07:15:46;;;;;;;5.22;2.00;;;;;;;;;;5088027;28;20026;-62
2023/07/05 07:18:11;;;;;;;6.67;2.30;;;;;;;;;;5078124;28;20044;-61
2023/07/05 07:20:37;;;;;;;5.82;2.40;;;;;;;;;;5085117;28;20265;-60
2023/07/05 07:23:04;;;;;;;7.70;2.30;;;;;;;;;;5082197;28;20085;-59
2023/07/05 07:25:29;;;;;;;5.50;2.03;;;;;;;;;;5080425;28;20308;-60
2023/07/05 07:27:54;;;;;;;5.53;2.00;;;;;;;;;;5081626;28;20150;-59
2023/07/05 07:30:20;;;;;;;5.87;2.00;;;;;;;;;;5081513;28;20752;-61
2023/07/05 07:32:48;;;;;;;7.13;2.47;;;;;;;;;;5084531;28;20254;-60
2023/07/05 07:35:13;;;;;;;5.93;2.33;;;;;;;;;;5082852;28;20249;-60
2023/07/05 07:37:39;;;;;;;6.30;2.45;;;;;;;;;;5087803;28;20073;-59
2023/07/05 07:40:06;;;;;;;5.60;1.95;;;;;;;;;;5079994;28;20133;-61
2023/07/05 07:42:31;;;;;;;5.15;1.95;;;;;;;;;;5082736;28;20016;-59
2023/07/05 07:44:57;;;;;;;4.60;1.90;;;;;;;;;;5081866;28;20027;-59
2023/07/05 07:47:22;;;;;;;5.10;2.10;;;;;;;;;;5086429;28;20115;-62
2023/07/05 07:49:49;;;;;;;4.97;2.08;;;;;;;;;;5081504;28;20038;-59
2023/07/05 07:52:17;;;;;;;5.25;2.28;;;;;;;;;;5077494;28;20044;-60
2023/07/05 07:54:45;;;;;;;4.30;1.90;;;;;;;;;;5082112;28;20030;-59
2023/07/05 07:57:10;;;;;;;6.65;2.15;;;;;;;;;;5079170;28;20058;-61
2023/07/05 07:59:40;;;;;;;5.88;1.92;;;;;;;;;;5077779;27;20111;-61
2023/07/05 08:02:08;;;;;;;5.95;2.10;;;;;;;;;;5078513;28;20023;-62
2023/07/05 08:04:33;;;;;;;6.65;1.88;;;;;;;;;;5075770;28;20026;-61
2023/07/05 08:07:01;;;;;;;5.30;2.07;;;;;;;;;;5079864;28;20024;-61
2023/07/05 08:09:31;;;;;;;6.45;2.00;;;;;;;;;;5075092;28;20088;-61
2023/07/05 08:11:59;;;;;;;7.13;2.58;;;;;;;;;;5078010;28;20024;-59
2023/07/05 08:14:25;;;;;;;5.25;2.10;;;;;;;;;;5081112;28;20024;-61
2023/07/05 08:16:55;;;;;;;6.15;1.70;;;;;;;;;;5077586;28;20073;-60
2023/07/05 08:19:23;;;;;;;5.15;1.95;;;;;;;;;;5079585;28;20032;-60
2023/07/05 08:21:49;;;;;;;5.85;1.85;;;;;;;;;;5076383;28;20027;-59
2023/07/05 08:24:17;;;;;;;4.82;1.77;;;;;;;;;;5084771;28;20610;-59
2023/07/05 08:26:42;;;;;;;4.57;1.88;;;;;;;;;;5079551;28;20386;-60
2023/07/05 08:29:08;;;;;;;6.00;2.05;;;;;;;;;;5083756;27;20024;-59
2023/07/05 08:31:36;;;;;;;5.75;1.90;;;;;;;;;;5074955;28;20255;-60
2023/07/05 08:34:04;;;;;;;6.43;1.80;;;;;;;;;;5085357;28;20028;-60
2023/07/05 08:36:32;;;;;;;5.95;1.73;;;;;;;;;;5080582;28;20020;-60
2023/07/05 08:38:59;;;;;;;7.70;2.05;;;;;;;;;;5080900;28;20035;-60
2023/07/05 08:41:37;;;;;;;4.72;1.77;;;;;;;;;;5078585;28;20020;-61
2023/07/05 08:44:21;;;;;;;5.78;1.88;;;;;;;;;;5078322;28;20016;-61
2023/07/05 08:46:49;;;;;;;4.95;1.90;;;;;;;;;;5081597;28;20020;-59
2023/07/05 08:49:29;;;;;;;4.65;1.65;;;;;;;;;;5079196;28;20328;-61
2023/07/05 08:51:56;;;;;;;;;;;;;;;;;;5083113;28;20035;-59
2023/07/05 08:54:22;;;;;;;4.72;1.90;;;;;;;;;;5077540;28;19916;-60
2023/07/05 08:56:49;;;;;;;4.40;1.73;;;;;;;;;;5077883;28;20096;-59
2023/07/05 08:59:18;;;;;;;4.55;1.50;;;;;;;;;;5078615;28;20120;-61
2023/07/05 09:01:44;;;;;;;5.18;1.42;;;;;;;;;;5078529;27;20020;-59
2023/07/05 09:04:22;;;;;;;4.65;1.70;;;;;;;;;;5079506;28;20060;-61
2023/07/05 09:06:54;;;;;;;4.23;1.80;;;;;;;;;;5077592;28;20008;-59
2023/07/05 09:09:20;;;;;;;5.05;1.83;;;;;;;;;;5079914;28;20478;-60
2023/07/05 09:11:51;;;;;;;4.27;1.80;;;;;;;;;;5075095;28;20101;-60
2023/07/05 09:14:20;;;;;;;5.47;1.90;;;;;;;;;;5079443;28;20430;-60
2023/07/05 09:17:14;;;;;;;5.30;1.60;;;;;;;;;;5078964;28;20051;-60
2023/07/05 09:19:39;;;;;;;4.88;1.98;;;;;;;;;;5071017;28;20521;-60
2023/07/05 09:22:07;;;;;;;5.07;1.60;;;;;;;;;;5080337;28;20499;-61
2023/07/05 09:24:36;;;;;;;5.03;1.60;;;;;;;;;;5082576;28;20266;-61
2023/07/05 09:27:08;;;;;;;6.43;1.65;;;;;;;;;;5080199;28;20489;-60
2023/07/05 09:29:43;;;;;;;5.38;1.60;;;;;;;;;;5080374;28;20775;-61
2023/07/05 09:32:13;;;;;;;4.07;1.38;;;;;;;;;;5079957;28;20024;-61
2023/07/05 09:34:43;;;;;;;4.05;1.55;;;;;;;;;;5076779;28;20023;-62
2023/07/05 09:37:19;;;;;;;4.40;1.73;;;;;;;;;;5081576;28;20391;-60
2023/07/05 09:39:58;;;;;;;6.80;1.58;;;;;;;;;;5097222;28;20027;-61
2023/07/05 09:42:30;;;;;;;5.43;1.60;;;;;;;;;;5089767;28;20489;-61
2023/07/05 09:44:55;;;;;;;5.53;1.67;;;;;;;;;;5089156;28;20078;-60
2023/07/05 09:47:22;;;;;;;3.27;1.20;;;;;;;;;;5085743;28;20066;-59
2023/07/05 09:49:48;;;;;;;6.22;1.70;;;;;;;;;;5085279;28;20265;-60
2023/07/05 09:52:17;;;;;;;4.10;1.60;;;;;;;;;;5094339;28;20015;-60
2023/07/05 09:54:43;;;;;;;4.32;1.48;;;;;;;;;;5090480;28;20237;-61
2023/07/05 09:57:09;;;;;;;7.20;1.65;;;;;;;;;;5091269;28;20027;-61
2023/07/05 09:59:39;;;;;;;5.00;1.73;;;;;;;;;;5083658;28;20023;-60
2023/07/05 10:02:12;;;;;;;4.30;1.67;;;;;;;;;;5094826;28;20649;-60
2023/07/05 10:04:48;;;;;;;3.92;1.35;;;;;;;;;;5077547;28;20530;-60
2023/07/05 10:07:15;;;;;;;4.50;1.70;;;;;;;;;;5081969;28;20071;-60
2023/07/05 10:09:53;;;;;;;4.47;1.75;;;;;;;;;;5089551;28;20020;-60
2023/07/05 10:12:19;;;;;;;5.03;1.65;;;;;;;;;;5085211;28;20103;-59
2023/07/05 10:14:52;;;;;;;4.32;1.75;;;;;;;;;;5093432;28;20521;-61
2023/07/05 10:17:18;;;;;;;3.83;1.42;;;;;;;;;;5088128;28;20052;-61
2023/07/05 10:19:49;;;;;;;3.70;1.40;;;;;;;;;;5092670;28;20761;-62
2023/07/05 10:22:16;;;;;;;4.93;1.35;;;;;;;;;;5083672;28;20387;-61
2023/07/05 10:24:51;;;;;;;5.00;1.60;;;;;;;;;;5084619;28;20106;-62
2023/07/05 10:27:19;;;;;;;4.78;1.70;;;;;;;;;;5090398;28;20023;-62
2023/07/05 10:29:51;;;;;;;5.72;1.52;;;;;;;;;;5090090;28;20730;-60
2023/07/05 10:32:18;;;;;;;4.22;1.50;;;;;;;;;;5094723;28;20087;-61
2023/07/05 10:34:43;;;;;;;5.72;1.38;;;;;;;;;;5086488;28;20094;-61
2023/07/05 10:37:25;;;;;;;4.30;1.73;;;;;;;;;;5092086;28;20026;-61
2023/07/05 10:39:50;;;;;;;3.83;1.40;;;;;;;;;;5087122;28;20036;-62
2023/07/05 10:42:16;;;;;;;6.93;1.60;;;;;;;;;;5092557;28;20019;-61
2023/07/05 10:44:41;;;;;;;4.22;1.50;;;;;;;;;;5089418;28;21045;-61
2023/07/05 10:47:09;;;;;;;5.80;1.58;;;;;;;;;;5087057;28;20035;-59
2023/07/05 10:49:34;;;;;;;4.38;1.70;;;;;;;;;;5080861;28;20786;-60
2023/07/05 10:52:01;;;;;;;4.25;1.45;;;;;;;;;;5094325;28;20030;-61
2023/07/05 10:54:42;;;;;;;4.18;1.60;;;;;;;;;;5081680;28;20687;-61
2023/07/05 10:57:13;;;;;;;4.05;1.50;;;;;;;;;;5078963;28;20111;-61
2023/07/05 10:59:46;;;;;;;4.07;1.50;;;;;;;;;;5091150;28;20741;-63
2023/07/05 11:02:11;;;;;;;4.03;1.52;;;;;;;;;;5086940;28;20527;-61
2023/07/05 11:04:38;;;;;;;4.37;1.50;;;;;;;;;;5083600;28;20016;-59
2023/07/05 11:07:10;;;;;;;3.88;1.40;;;;;;;;;;5084138;28;20074;-60
2023/07/05 11:09:38;;;;;;;5.40;1.42;;;;;;;;;;5091284;28;20598;-61
2023/07/05 11:12:16;;;;;;;4.28;1.40;;;;;;;;;;5092616;28;20043;-60
2023/07/05 11:14:42;;;;;;;5.07;1.80;;;;;;;;;;5079487;28;20066;-61
2023/07/05 11:17:18;;;;;;;3.95;1.50;;;;;;;;;;5086882;28;20131;-60
2023/07/05 11:19:43;;;;;;;4.13;1.40;;;;;;;;;;5083183;28;20031;-60
2023/07/05 11:22:28;;;;;;;5.03;1.50;;;;;;;;;;5085134;28;20493;-60
2023/07/05 11:24:53;;;;;;;3.42;1.33;;;;;;;;;;5093052;28;20325;-60
2023/07/05 11:27:21;;;;;;;3.47;1.47;;;;;;;;;;5089908;28;20027;-60
2023/07/05 11:29:47;;;;;;;3.60;1.40;;;;;;;;;;5090283;28;20027;-60
2023/07/05 11:32:17;;;;;;;3.85;1.50;;;;;;;;;;5091133;28;20553;-59
2023/07/05 11:34:47;;;;;;;4.20;1.60;;;;;;;;;;5090613;28;20020;-61
2023/07/05 11:37:14;;;;;;;4.65;1.55;;;;;;;;;;5093537;28;20053;-60
2023/07/05 11:39:41;;;;;;;5.00;1.70;;;;;;;;;;5092079;28;20036;-61
2023/07/05 11:42:13;;;;;;;3.80;1.63;;;;;;;;;;5091480;28;20047;-60
2023/07/05 11:44:48;;;;;;;5.68;1.70;;;;;;;;;;5085228;28;20027;-59
2023/07/05 11:47:25;;;;;;;5.65;1.63;;;;;;;;;;5092852;28;20016;-59
2023/07/05 11:49:58;;;;;;;5.90;1.77;;;;;;;;;;5088811;28;20082;-61
2023/07/05 11:52:29;;;;;;;4.50;1.70;;;;;;;;;;5087577;28;20020;-60
2023/07/05 11:55:06;;;;;;;5.35;1.90;;;;;;;;;;5092669;28;20390;-60
2023/07/05 11:57:37;;;;;;;5.97;1.90;;;;;;;;;;5087113;28;20050;-61
2023/07/05 12:00:02;;;;;;;5.22;1.60;;;;;;;;;;5091926;28;20032;-60
2023/07/05 12:02:47;;;;;;;4.15;1.67;;;;;;;;;;5085768;28;20404;-60
2023/07/05 12:05:14;;;;;;;4.35;1.85;;;;;;;;;;5089594;28;20054;-60
2023/07/05 12:07:40;;;;;;;4.75;1.80;;;;;;;;;;5089952;28;20553;-60
2023/07/05 12:10:07;;;;;;;4.82;2.10;;;;;;;;;;5088424;28;20035;-59
2023/07/05 12:12:39;;;;;;;5.93;1.98;;;;;;;;;;5090450;28;20027;-60
2023/07/05 12:15:05;;;;;;;5.38;2.13;;;;;;;;;;5085581;28;20016;-60
2023/07/05 12:17:30;;;;;;;5.30;2.20;;;;;;;;;;5095694;28;20039;-61
2023/07/05 12:19:56;;;;;;;5.30;1.90;;;;;;;;;;5087779;28;20030;-62
2023/07/05 12:22:25;;;;;;;4.63;2.05;;;;;;;;;;5089947;28;20027;-60
2023/07/05 12:24:52;;;;;;;6.13;2.53;;;;;;;;;;5094732;28;20019;-61
2023/07/05 12:27:31;;;;;;;6.70;2.38;;;;;;;;;;5086411;28;20172;-61
2023/07/05 12:29:57;;;;;;;5.45;2.17;;;;;;;;;;5093216;28;20447;-61
2023/07/05 12:32:24;;;;;;;4.72;2.20;;;;;;;;;;5092469;28;20106;-60
2023/07/05 12:35:09;;;;;;;5.50;2.33;;;;;;;;;;5090358;28;20126;-59
2023/07/05 12:37:36;;;;;;;4.53;2.05;;;;;;;;;;5088332;28;20032;-60
2023/07/05 12:40:12;;;;;;;5.20;2.00;;;;;;;;;;5096327;28;20027;-60
2023/07/05 12:42:46;;;;;;;5.65;2.10;;;;;;;;;;5091936;28;20509;-61
2023/07/05 12:45:14;;;;;;;5.15;2.33;;;;;;;;;;5091622;28;20016;-57
2023/07/05 12:47:39;;;;;;;5.15;2.50;;;;;;;;;;5091722;28;20391;-61
2023/07/05 12:50:07;;;;;;;6.43;2.37;;;;;;;;;;5087701;28;20532;-61
2023/07/05 12:52:33;;;;;;;6.72;2.50;;;;;;;;;;5092488;28;20567;-61
2023/07/05 12:54:58;;;;;;;4.72;2.22;;;;;;;;;;5089319;28;20274;-61
2023/07/05 12:57:32;;;;;;;5.73;2.37;;;;;;;;;;5088647;28;20028;-61
2023/07/05 12:59:58;;;;;;;5.63;2.53;;;;;;;;;;5079121;28;20030;-61
2023/07/05 13:02:30;;;;;;;5.38;2.55;;;;;;;;;;5091788;28;20025;-61
2023/07/05 13:04:59;;;;;;;6.75;2.30;;;;;;;;;;5093668;28;20034;-61
2023/07/05 13:07:25;;;;;;;5.35;2.45;;;;;;;;;;5088127;28;20088;-60
2023/07/05 13:09:53;;;;;;;5.18;2.30;;;;;;;;;;5093007;28;20566;-60
2023/07/05 13:12:20;;;;;;;5.35;2.72;;;;;;;;;;5086546;28;20012;-60
2023/07/05 13:15:00;;;;;;;6.47;2.65;;;;;;;;;;5096197;28;20023;-61
2023/07/05 13:17:29;;;;;;;5.97;2.65;;;;;;;;;;5086490;28;20048;-60
2023/07/05 13:20:12;;;;;;;6.53;2.35;;;;;;;;;;5090307;28;20039;-61
2023/07/05 13:22:42;;;;;;;6.47;2.80;;;;;;;;;;5082251;28;20030;-60
2023/07/05 13:25:26;;;;;;;5.75;2.70;;;;;;;;;;5076731;28;20054;-61
2023/07/05 13:27:53;;;;;;;6.18;2.70;;;;;;;;;;5085501;28;20169;-60
2023/07/05 13:30:19;;;;;;;5.95;3.13;;;;;;;;;;5077019;28;20016;-62
2023/07/05 13:32:47;;;;;;;7.22;3.47;;;;;;;;;;5079502;28;20523;-62
2023/07/05 13:35:14;;;;;;;11.18;6.43;;;;;;;;;;5082623;28;20036;-62
2023/07/05 13:37:40;;;;;;;14.95;9.30;;;;;;;;;;5078547;28;20024;-61
2023/07/05 13:40:09;;;;;;;12.30;7.53;;;;;;;;;;5085150;28;20088;-60
2023/07/05 13:42:34;;;;;;;;;;;;;;;;;;5080439;27;20245;-61
2023/07/05 13:44:59;;;;;;;5.80;2.92;;;;;;;;;;5078863;28;20319;-61
2023/07/05 13:47:25;;;;;;;6.03;2.67;;;;;;;;;;5079216;28;20016;-62
2023/07/05 13:49:50;;;;;;;7.03;3.10;;;;;;;;;;5081853;28;20664;-61
2023/07/05 13:52:19;;;;;;;7.43;2.90;;;;;;;;;;5081541;28;20249;-62
2023/07/05 13:54:45;;;;;;;5.78;2.88;;;;;;;;;;5079347;28;20906;-62
2023/07/05 13:57:20;;;;;;;6.60;2.67;;;;;;;;;;5079135;28;20012;-63
2023/07/05 13:59:45;;;;;;;6.13;2.63;;;;;;;;;;5080254;28;20034;-62
2023/07/05 14:02:30;;;;;;;7.68;3.67;;;;;;;;;;5079327;28;20020;-62
2023/07/05 14:04:56;;;;;;;8.88;4.00;;;;;;;;;;5080205;28;20114;-61
2023/07/05 14:07:22;;;;;;;9.02;3.97;;;;;;;;;;5087719;28;20071;-61
2023/07/05 14:09:47;;;;;;;7.32;3.70;;;;;;;;;;5079322;28;20020;-61
2023/07/05 14:12:16;;;;;;;6.70;3.30;;;;;;;;;;5079436;28;20099;-61
2023/07/05 14:14:41;;;;;;;9.88;3.33;;;;;;;;;;5084876;28;20020;-61
2023/07/05 14:17:19;;;;;;;9.93;3.57;;;;;;;;;;5084256;28;20040;-61
2023/07/05 14:19:45;;;;;;;5.90;2.88;;;;;;;;;;5078022;28;20016;-61
2023/07/05 14:22:23;;;;;;;7.32;3.58;;;;;;;;;;5081418;28;20064;-61
2023/07/05 14:24:49;;;;;;;7.07;3.40;;;;;;;;;;5078317;28;20053;-62
2023/07/05 14:27:18;;;;;;;6.80;2.88;;;;;;;;;;5078274;28;20035;-61
2023/07/05 14:29:44;;;;;;;6.75;3.20;;;;;;;;;;5076457;28;20590;-61
2023/07/05 14:32:10;;;;;;;5.90;3.05;;;;;;;;;;5077603;28;20024;-60
2023/07/05 14:34:35;;;;;;;7.00;3.28;;;;;;;;;;5085405;28;20020;-61
2023/07/05 14:37:01;;;;;;;9.20;3.27;;;;;;;;;;5076199;28;20026;-61
2023/07/05 14:39:26;;;;;;;8.00;3.55;;;;;;;;;;5087375;28;20970;-62
2023/07/05 14:41:51;;;;;;;7.00;3.25;;;;;;;;;;5078116;28;20023;-61
2023/07/05 14:44:17;;;;;;;7.63;3.37;;;;;;;;;;5082084;28;20046;-61
2023/07/05 14:46:43;;;;;;;5.93;3.47;;;;;;;;;;5079191;28;20046;-61
2023/07/05 14:49:08;;;;;;;8.13;3.40;;;;;;;;;;5075829;28;20072;-62